Terminal Aerodrome Forecast
Issued by NWS Shreveport, LA

Current Version | Previous Version | Text Only | Print | Product List | Glossary On
Versions: 1 2 3 4 5 6 7 8 9 10 11 12 13
000
FTUS44 KSHV 312300 RRA
TAFTXK
TAF
KTXK 312344Z 0100/0124 07004KT 2SM -RA BR BKN006 OVC011
      TEMPO 0100/0104 1SM -RA BR OVC006
     FM010600 05003KT 2SM -RA BR OVC006
     FM011500 05006KT 4SM BR OVC008
     FM011800 04006KT P6SM OVC013
     FM012100 04006KT P6SM OVC020=

USA.gov is the U.S. government's official web portal to all federal, state and local government web resources and services.